sensor_id;sensor_type;location;lat;lon;timestamp;P1;durP1;ratioP1;P2;durP2;ratioP2
9972;SDS011;5027;53.560;10.062;2022-12-16T00:01:15;18.80;;;16.17;;
9972;SDS011;5027;53.560;10.062;2022-12-16T00:03:54;21.10;;;16.20;;
9972;SDS011;5027;53.560;10.062;2022-12-16T00:06:23;19.53;;;16.07;;
9972;SDS011;5027;53.560;10.062;2022-12-16T00:08:51;21.17;;;15.67;;
9972;SDS011;5027;53.560;10.062;2022-12-16T00:11:18;18.10;;;14.77;;
9972;SDS011;5027;53.560;10.062;2022-12-16T00:13:45;20.50;;;16.70;;
9972;SDS011;5027;53.560;10.062;2022-12-16T00:16:12;17.40;;;15.13;;
9972;SDS011;5027;53.560;10.062;2022-12-16T00:18:41;21.83;;;16.60;;
9972;SDS011;5027;53.560;10.062;2022-12-16T00:21:08;22.63;;;16.73;;
9972;SDS011;5027;53.560;10.062;2022-12-16T00:23:35;22.33;;;16.47;;
9972;SDS011;5027;53.560;10.062;2022-12-16T00:26:04;17.23;;;15.37;;
9972;SDS011;5027;53.560;10.062;2022-12-16T00:28:31;18.50;;;15.53;;
9972;SDS011;5027;53.560;10.062;2022-12-16T00:30:58;19.83;;;15.83;;
9972;SDS011;5027;53.560;10.062;2022-12-16T00:33:25;18.63;;;15.33;;
9972;SDS011;5027;53.560;10.062;2022-12-16T00:35:52;18.20;;;15.67;;
9972;SDS011;5027;53.560;10.062;2022-12-16T00:38:20;17.90;;;16.03;;
9972;SDS011;5027;53.560;10.062;2022-12-16T00:40:48;19.37;;;16.07;;
9972;SDS011;5027;53.560;10.062;2022-12-16T00:43:17;21.10;;;16.73;;
9972;SDS011;5027;53.560;10.062;2022-12-16T00:45:45;19.50;;;15.87;;
9972;SDS011;5027;53.560;10.062;2022-12-16T00:48:13;18.73;;;15.87;;
9972;SDS011;5027;53.560;10.062;2022-12-16T00:50:40;18.57;;;15.87;;
9972;SDS011;5027;53.560;10.062;2022-12-16T00:53:09;20.43;;;15.73;;
9972;SDS011;5027;53.560;10.062;2022-12-16T00:55:35;17.17;;;15.37;;
9972;SDS011;5027;53.560;10.062;2022-12-16T00:58:02;21.40;;;16.90;;
9972;SDS011;5027;53.560;10.062;2022-12-16T01:00:29;21.73;;;16.03;;
9972;SDS011;5027;53.560;10.062;2022-12-16T01:02:56;19.60;;;15.70;;
9972;SDS011;5027;53.560;10.062;2022-12-16T01:05:24;18.80;;;16.77;;
9972;SDS011;5027;53.560;10.062;2022-12-16T01:07:52;19.73;;;15.93;;
9972;SDS011;5027;53.560;10.062;2022-12-16T01:10:20;20.57;;;16.43;;
9972;SDS011;5027;53.560;10.062;2022-12-16T01:12:49;18.63;;;15.60;;
9972;SDS011;5027;53.560;10.062;2022-12-16T01:15:16;19.73;;;16.27;;
9972;SDS011;5027;53.560;10.062;2022-12-16T01:17:43;20.20;;;16.50;;
9972;SDS011;5027;53.560;10.062;2022-12-16T01:20:11;21.10;;;16.53;;
9972;SDS011;5027;53.560;10.062;2022-12-16T01:22:38;22.77;;;16.93;;
9972;SDS011;5027;53.560;10.062;2022-12-16T01:25:05;17.13;;;15.37;;
9972;SDS011;5027;53.560;10.062;2022-12-16T01:27:33;19.30;;;15.93;;
9972;SDS011;5027;53.560;10.062;2022-12-16T01:30:00;17.90;;;15.90;;
9972;SDS011;5027;53.560;10.062;2022-12-16T01:32:27;20.83;;;15.93;;
9972;SDS011;5027;53.560;10.062;2022-12-16T01:34:53;19.83;;;16.03;;
9972;SDS011;5027;53.560;10.062;2022-12-16T01:37:21;17.67;;;15.70;;
9972;SDS011;5027;53.560;10.062;2022-12-16T01:39:49;18.00;;;15.90;;
9972;SDS011;5027;53.560;10.062;2022-12-16T01:42:18;21.77;;;16.30;;
9972;SDS011;5027;53.560;10.062;2022-12-16T01:44:47;19.80;;;16.43;;
9972;SDS011;5027;53.560;10.062;2022-12-16T01:47:21;19.43;;;16.30;;
9972;SDS011;5027;53.560;10.062;2022-12-16T01:49:58;21.30;;;15.83;;
9972;SDS011;5027;53.560;10.062;2022-12-16T01:52:31;20.50;;;16.17;;
9972;SDS011;5027;53.560;10.062;2022-12-16T01:57:47;20.33;;;16.07;;
9972;SDS011;5027;53.560;10.062;2022-12-16T02:00:24;19.87;;;15.90;;
9972;SDS011;5027;53.560;10.062;2022-12-16T02:02:51;18.47;;;16.00;;
9972;SDS011;5027;53.560;10.062;2022-12-16T02:05:20;18.43;;;15.80;;
9972;SDS011;5027;53.560;10.062;2022-12-16T02:07:52;22.97;;;15.90;;
9972;SDS011;5027;53.560;10.062;2022-12-16T02:10:20;21.30;;;15.70;;
9972;SDS011;5027;53.560;10.062;2022-12-16T02:16:14;18.63;;;15.97;;
9972;SDS011;5027;53.560;10.062;2022-12-16T02:18:54;19.83;;;15.93;;
9972;SDS011;5027;53.560;10.062;2022-12-16T02:24:45;21.93;;;16.37;;
9972;SDS011;5027;53.560;10.062;2022-12-16T02:27:33;17.23;;;14.73;;
9972;SDS011;5027;53.560;10.062;2022-12-16T02:33:27;19.87;;;16.17;;
9972;SDS011;5027;53.560;10.062;2022-12-16T02:45:52;19.67;;;15.07;;
9972;SDS011;5027;53.560;10.062;2022-12-16T02:48:19;23.20;;;15.60;;
9972;SDS011;5027;53.560;10.062;2022-12-16T02:50:47;20.40;;;15.83;;
9972;SDS011;5027;53.560;10.062;2022-12-16T02:53:16;23.13;;;16.77;;
9972;SDS011;5027;53.560;10.062;2022-12-16T03:04:20;21.50;;;16.43;;
9972;SDS011;5027;53.560;10.062;2022-12-16T03:06:30;22.77;;;16.17;;
9972;SDS011;5027;53.560;10.062;2022-12-16T03:09:02;20.73;;;16.57;;
9972;SDS011;5027;53.560;10.062;2022-12-16T03:11:33;20.00;;;15.27;;
9972;SDS011;5027;53.560;10.062;2022-12-16T03:14:01;20.60;;;15.73;;
9972;SDS011;5027;53.560;10.062;2022-12-16T03:16:31;19.50;;;16.60;;
9972;SDS011;5027;53.560;10.062;2022-12-16T03:19:00;23.87;;;18.90;;
9972;SDS011;5027;53.560;10.062;2022-12-16T03:21:33;19.87;;;16.97;;
9972;SDS011;5027;53.560;10.062;2022-12-16T03:24:05;19.97;;;16.23;;
9972;SDS011;5027;53.560;10.062;2022-12-16T03:26:42;20.50;;;17.03;;
9972;SDS011;5027;53.560;10.062;2022-12-16T03:29:19;20.73;;;16.70;;
9972;SDS011;5027;53.560;10.062;2022-12-16T03:32:03;17.90;;;15.50;;
9972;SDS011;5027;53.560;10.062;2022-12-16T03:34:39;17.47;;;15.07;;
9972;SDS011;5027;53.560;10.062;2022-12-16T03:37:10;20.23;;;16.50;;
9972;SDS011;5027;53.560;10.062;2022-12-16T03:39:40;17.83;;;15.70;;
9972;SDS011;5027;53.560;10.062;2022-12-16T03:42:10;19.60;;;16.03;;
9972;SDS011;5027;53.560;10.062;2022-12-16T03:44:41;17.20;;;15.40;;
9972;SDS011;5027;53.560;10.062;2022-12-16T03:47:10;21.70;;;15.80;;
9972;SDS011;5027;53.560;10.062;2022-12-16T03:49:36;19.00;;;15.83;;
9972;SDS011;5027;53.560;10.062;2022-12-16T03:52:03;19.00;;;15.90;;
9972;SDS011;5027;53.560;10.062;2022-12-16T03:54:30;19.43;;;16.37;;
9972;SDS011;5027;53.560;10.062;2022-12-16T03:56:57;21.03;;;16.53;;
9972;SDS011;5027;53.560;10.062;2022-12-16T03:59:24;19.20;;;15.90;;
9972;SDS011;5027;53.560;10.062;2022-12-16T04:01:51;19.33;;;16.13;;
9972;SDS011;5027;53.560;10.062;2022-12-16T04:04:18;18.90;;;15.33;;
9972;SDS011;5027;53.560;10.062;2022-12-16T04:06:44;19.67;;;16.57;;
9972;SDS011;5027;53.560;10.062;2022-12-16T04:09:31;19.10;;;16.43;;
9972;SDS011;5027;53.560;10.062;2022-12-16T04:11:58;20.13;;;16.20;;
9972;SDS011;5027;53.560;10.062;2022-12-16T04:14:43;17.60;;;15.53;;
9972;SDS011;5027;53.560;10.062;2022-12-16T04:17:28;19.73;;;14.67;;
9972;SDS011;5027;53.560;10.062;2022-12-16T04:20:14;19.80;;;15.53;;
9972;SDS011;5027;53.560;10.062;2022-12-16T04:23:01;18.77;;;15.37;;
9972;SDS011;5027;53.560;10.062;2022-12-16T04:25:46;19.93;;;16.20;;
9972;SDS011;5027;53.560;10.062;2022-12-16T04:28:13;20.43;;;16.00;;
9972;SDS011;5027;53.560;10.062;2022-12-16T04:30:40;18.13;;;14.63;;
9972;SDS011;5027;53.560;10.062;2022-12-16T04:33:08;18.97;;;16.13;;
9972;SDS011;5027;53.560;10.062;2022-12-16T04:35:56;20.30;;;16.57;;
9972;SDS011;5027;53.560;10.062;2022-12-16T04:38:42;20.27;;;15.43;;
9972;SDS011;5027;53.560;10.062;2022-12-16T04:41:27;19.30;;;16.00;;
9972;SDS011;5027;53.560;10.062;2022-12-16T04:44:12;22.17;;;17.03;;
9972;SDS011;5027;53.560;10.062;2022-12-16T04:46:58;23.80;;;16.33;;
9972;SDS011;5027;53.560;10.062;2022-12-16T04:49:43;20.53;;;15.40;;
9972;SDS011;5027;53.560;10.062;2022-12-16T04:52:29;22.27;;;16.70;;
9972;SDS011;5027;53.560;10.062;2022-12-16T04:55:14;22.40;;;16.57;;
9972;SDS011;5027;53.560;10.062;2022-12-16T04:58:00;19.03;;;16.33;;
9972;SDS011;5027;53.560;10.062;2022-12-16T05:00:46;21.67;;;16.23;;
9972;SDS011;5027;53.560;10.062;2022-12-16T05:03:32;18.27;;;15.87;;
9972;SDS011;5027;53.560;10.062;2022-12-16T05:06:19;20.80;;;16.97;;
9972;SDS011;5027;53.560;10.062;2022-12-16T05:09:05;19.23;;;16.17;;
9972;SDS011;5027;53.560;10.062;2022-12-16T05:11:51;19.03;;;15.67;;
9972;SDS011;5027;53.560;10.062;2022-12-16T05:14:36;20.43;;;16.43;;
9972;SDS011;5027;53.560;10.062;2022-12-16T05:17:22;21.80;;;16.70;;
9972;SDS011;5027;53.560;10.062;2022-12-16T05:20:07;23.43;;;18.83;;
9972;SDS011;5027;53.560;10.062;2022-12-16T05:22:54;22.00;;;17.23;;
9972;SDS011;5027;53.560;10.062;2022-12-16T05:25:40;20.10;;;16.43;;
9972;SDS011;5027;53.560;10.062;2022-12-16T05:28:26;21.80;;;17.27;;
9972;SDS011;5027;53.560;10.062;2022-12-16T05:31:11;18.60;;;15.83;;
9972;SDS011;5027;53.560;10.062;2022-12-16T05:33:57;21.00;;;16.47;;
9972;SDS011;5027;53.560;10.062;2022-12-16T05:36:42;27.07;;;16.70;;
9972;SDS011;5027;53.560;10.062;2022-12-16T05:39:27;21.13;;;16.47;;
9972;SDS011;5027;53.560;10.062;2022-12-16T05:42:13;22.20;;;17.23;;
9972;SDS011;5027;53.560;10.062;2022-12-16T05:44:58;21.03;;;16.73;;
9972;SDS011;5027;53.560;10.062;2022-12-16T05:47:46;21.73;;;16.37;;
9972;SDS011;5027;53.560;10.062;2022-12-16T05:50:32;21.83;;;17.73;;
9972;SDS011;5027;53.560;10.062;2022-12-16T05:53:20;20.77;;;17.30;;
9972;SDS011;5027;53.560;10.062;2022-12-16T05:56:05;21.27;;;17.80;;
9972;SDS011;5027;53.560;10.062;2022-12-16T05:58:51;20.47;;;17.10;;
9972;SDS011;5027;53.560;10.062;2022-12-16T06:01:36;21.30;;;17.43;;
9972;SDS011;5027;53.560;10.062;2022-12-16T06:04:22;22.70;;;17.63;;
9972;SDS011;5027;53.560;10.062;2022-12-16T06:07:07;24.07;;;17.70;;
9972;SDS011;5027;53.560;10.062;2022-12-16T06:09:52;21.13;;;16.57;;
9972;SDS011;5027;53.560;10.062;2022-12-16T06:12:37;20.27;;;17.47;;
9972;SDS011;5027;53.560;10.062;2022-12-16T06:15:23;22.47;;;17.07;;
9972;SDS011;5027;53.560;10.062;2022-12-16T06:18:08;22.40;;;17.10;;
9972;SDS011;5027;53.560;10.062;2022-12-16T06:20:54;22.17;;;17.50;;
9972;SDS011;5027;53.560;10.062;2022-12-16T06:23:37;20.50;;;16.33;;
9972;SDS011;5027;53.560;10.062;2022-12-16T06:26:23;20.80;;;16.87;;
9972;SDS011;5027;53.560;10.062;2022-12-16T06:29:08;20.63;;;16.53;;
9972;SDS011;5027;53.560;10.062;2022-12-16T06:31:53;21.77;;;16.90;;
9972;SDS011;5027;53.560;10.062;2022-12-16T06:34:38;19.13;;;16.67;;
9972;SDS011;5027;53.560;10.062;2022-12-16T06:37:23;22.40;;;18.00;;
9972;SDS011;5027;53.560;10.062;2022-12-16T06:40:09;21.23;;;17.30;;
9972;SDS011;5027;53.560;10.062;2022-12-16T06:42:55;24.33;;;18.03;;
9972;SDS011;5027;53.560;10.062;2022-12-16T06:45:41;21.37;;;17.63;;
9972;SDS011;5027;53.560;10.062;2022-12-16T06:48:26;22.63;;;18.67;;
9972;SDS011;5027;53.560;10.062;2022-12-16T06:51:11;23.03;;;17.80;;
9972;SDS011;5027;53.560;10.062;2022-12-16T06:53:57;22.07;;;17.73;;
9972;SDS011;5027;53.560;10.062;2022-12-16T06:56:42;25.03;;;18.07;;
9972;SDS011;5027;53.560;10.062;2022-12-16T06:59:28;24.83;;;18.17;;
9972;SDS011;5027;53.560;10.062;2022-12-16T07:02:13;22.20;;;17.17;;
9972;SDS011;5027;53.560;10.062;2022-12-16T07:04:59;21.70;;;17.90;;
9972;SDS011;5027;53.560;10.062;2022-12-16T07:07:48;30.17;;;18.23;;
9972;SDS011;5027;53.560;10.062;2022-12-16T07:10:34;24.23;;;18.27;;
9972;SDS011;5027;53.560;10.062;2022-12-16T07:13:28;19.17;;;16.60;;
9972;SDS011;5027;53.560;10.062;2022-12-16T07:16:13;21.80;;;16.80;;
9972;SDS011;5027;53.560;10.062;2022-12-16T07:18:59;21.17;;;17.43;;
9972;SDS011;5027;53.560;10.062;2022-12-16T07:21:44;21.03;;;17.83;;
9972;SDS011;5027;53.560;10.062;2022-12-16T07:24:30;23.97;;;18.13;;
9972;SDS011;5027;53.560;10.062;2022-12-16T07:27:15;23.13;;;18.30;;
9972;SDS011;5027;53.560;10.062;2022-12-16T07:30:01;24.97;;;18.57;;
9972;SDS011;5027;53.560;10.062;2022-12-16T07:32:48;24.73;;;19.80;;
9972;SDS011;5027;53.560;10.062;2022-12-16T07:35:34;25.83;;;19.20;;
9972;SDS011;5027;53.560;10.062;2022-12-16T07:38:19;22.23;;;18.53;;
9972;SDS011;5027;53.560;10.062;2022-12-16T07:41:05;24.13;;;18.67;;
9972;SDS011;5027;53.560;10.062;2022-12-16T07:43:50;23.33;;;18.93;;
9972;SDS011;5027;53.560;10.062;2022-12-16T07:46:36;24.33;;;18.57;;
9972;SDS011;5027;53.560;10.062;2022-12-16T07:49:21;24.53;;;18.60;;
9972;SDS011;5027;53.560;10.062;2022-12-16T07:52:06;23.83;;;18.87;;
9972;SDS011;5027;53.560;10.062;2022-12-16T07:54:52;23.73;;;18.93;;
9972;SDS011;5027;53.560;10.062;2022-12-16T07:57:37;25.20;;;19.33;;
9972;SDS011;5027;53.560;10.062;2022-12-16T08:00:22;24.37;;;18.57;;
9972;SDS011;5027;53.560;10.062;2022-12-16T08:03:08;22.17;;;18.37;;
9972;SDS011;5027;53.560;10.062;2022-12-16T08:05:53;23.33;;;19.43;;
9972;SDS011;5027;53.560;10.062;2022-12-16T08:08:38;24.37;;;17.97;;
9972;SDS011;5027;53.560;10.062;2022-12-16T08:11:24;21.47;;;18.30;;
9972;SDS011;5027;53.560;10.062;2022-12-16T08:14:09;23.47;;;18.97;;
9972;SDS011;5027;53.560;10.062;2022-12-16T08:16:55;25.37;;;19.43;;
9972;SDS011;5027;53.560;10.062;2022-12-16T08:19:40;21.90;;;18.73;;
9972;SDS011;5027;53.560;10.062;2022-12-16T08:22:25;23.73;;;18.97;;
9972;SDS011;5027;53.560;10.062;2022-12-16T08:25:11;27.43;;;19.10;;
9972;SDS011;5027;53.560;10.062;2022-12-16T08:27:56;25.17;;;19.50;;
9972;SDS011;5027;53.560;10.062;2022-12-16T08:30:42;26.50;;;21.20;;
9972;SDS011;5027;53.560;10.062;2022-12-16T08:33:27;24.03;;;19.20;;
9972;SDS011;5027;53.560;10.062;2022-12-16T08:36:12;26.27;;;20.33;;
9972;SDS011;5027;53.560;10.062;2022-12-16T08:38:58;23.07;;;19.03;;
9972;SDS011;5027;53.560;10.062;2022-12-16T08:41:43;24.57;;;19.13;;
9972;SDS011;5027;53.560;10.062;2022-12-16T08:44:28;25.07;;;20.63;;
9972;SDS011;5027;53.560;10.062;2022-12-16T08:47:14;26.47;;;19.27;;
9972;SDS011;5027;53.560;10.062;2022-12-16T08:49:59;21.70;;;18.97;;
9972;SDS011;5027;53.560;10.062;2022-12-16T08:52:44;25.23;;;18.80;;
9972;SDS011;5027;53.560;10.062;2022-12-16T08:55:30;26.17;;;20.33;;
9972;SDS011;5027;53.560;10.062;2022-12-16T08:58:20;25.17;;;19.63;;
9972;SDS011;5027;53.560;10.062;2022-12-16T09:01:06;24.60;;;19.40;;
9972;SDS011;5027;53.560;10.062;2022-12-16T09:03:51;29.87;;;21.63;;
9972;SDS011;5027;53.560;10.062;2022-12-16T09:06:44;28.23;;;20.00;;
9972;SDS011;5027;53.560;10.062;2022-12-16T09:09:29;23.87;;;19.83;;
9972;SDS011;5027;53.560;10.062;2022-12-16T09:12:14;26.30;;;20.60;;
9972;SDS011;5027;53.560;10.062;2022-12-16T09:14:59;26.73;;;20.00;;
9972;SDS011;5027;53.560;10.062;2022-12-16T09:17:45;24.47;;;19.43;;
9972;SDS011;5027;53.560;10.062;2022-12-16T09:20:38;24.70;;;20.30;;
9972;SDS011;5027;53.560;10.062;2022-12-16T09:23:23;26.63;;;19.90;;
9972;SDS011;5027;53.560;10.062;2022-12-16T09:26:09;25.23;;;20.10;;
9972;SDS011;5027;53.560;10.062;2022-12-16T09:28:54;25.97;;;20.43;;
9972;SDS011;5027;53.560;10.062;2022-12-16T09:31:39;23.23;;;20.23;;
9972;SDS011;5027;53.560;10.062;2022-12-16T09:34:25;22.37;;;19.23;;
9972;SDS011;5027;53.560;10.062;2022-12-16T09:37:10;22.70;;;20.03;;
9972;SDS011;5027;53.560;10.062;2022-12-16T09:39:55;23.90;;;20.10;;
9972;SDS011;5027;53.560;10.062;2022-12-16T09:42:48;23.87;;;19.30;;
9972;SDS011;5027;53.560;10.062;2022-12-16T09:48:50;24.37;;;20.10;;
9972;SDS011;5027;53.560;10.062;2022-12-16T09:51:49;21.33;;;18.90;;
9972;SDS011;5027;53.560;10.062;2022-12-16T09:54:43;26.33;;;20.30;;
9972;SDS011;5027;53.560;10.062;2022-12-16T09:57:31;23.70;;;20.27;;
9972;SDS011;5027;53.560;10.062;2022-12-16T10:00:22;23.40;;;19.37;;
9972;SDS011;5027;53.560;10.062;2022-12-16T10:21:33;26.00;;;20.27;;
9972;SDS011;5027;53.560;10.062;2022-12-16T10:28:55;25.83;;;21.17;;
9972;SDS011;5027;53.560;10.062;2022-12-16T10:31:31;23.67;;;20.37;;
9972;SDS011;5027;53.560;10.062;2022-12-16T10:34:19;25.23;;;20.67;;
9972;SDS011;5027;53.560;10.062;2022-12-16T10:37:12;26.40;;;21.33;;
9972;SDS011;5027;53.560;10.062;2022-12-16T10:40:02;26.00;;;20.33;;
9972;SDS011;5027;53.560;10.062;2022-12-16T10:42:58;25.00;;;21.97;;
9972;SDS011;5027;53.560;10.062;2022-12-16T10:45:49;32.57;;;21.30;;
9972;SDS011;5027;53.560;10.062;2022-12-16T10:48:38;24.83;;;20.50;;
9972;SDS011;5027;53.560;10.062;2022-12-16T10:51:25;25.00;;;20.70;;
9972;SDS011;5027;53.560;10.062;2022-12-16T10:54:22;24.00;;;20.77;;
9972;SDS011;5027;53.560;10.062;2022-12-16T10:57:26;23.57;;;20.00;;
9972;SDS011;5027;53.560;10.062;2022-12-16T11:00:42;23.73;;;20.47;;
9972;SDS011;5027;53.560;10.062;2022-12-16T11:03:38;26.83;;;20.07;;
9972;SDS011;5027;53.560;10.062;2022-12-16T11:06:25;22.33;;;19.60;;
9972;SDS011;5027;53.560;10.062;2022-12-16T11:09:21;24.40;;;20.37;;
9972;SDS011;5027;53.560;10.062;2022-12-16T11:12:13;26.27;;;21.70;;
9972;SDS011;5027;53.560;10.062;2022-12-16T11:14:59;25.37;;;21.60;;
9972;SDS011;5027;53.560;10.062;2022-12-16T11:18:11;26.97;;;21.53;;
9972;SDS011;5027;53.560;10.062;2022-12-16T11:26:54;26.00;;;21.93;;
9972;SDS011;5027;53.560;10.062;2022-12-16T11:29:57;25.70;;;21.27;;
9972;SDS011;5027;53.560;10.062;2022-12-16T11:32:50;25.87;;;21.73;;
9972;SDS011;5027;53.560;10.062;2022-12-16T11:35:39;24.03;;;20.60;;
9972;SDS011;5027;53.560;10.062;2022-12-16T11:38:35;24.37;;;21.80;;
9972;SDS011;5027;53.560;10.062;2022-12-16T11:41:39;24.97;;;20.50;;
9972;SDS011;5027;53.560;10.062;2022-12-16T11:50:25;25.60;;;20.87;;
9972;SDS011;5027;53.560;10.062;2022-12-16T11:53:17;24.93;;;21.77;;
9972;SDS011;5027;53.560;10.062;2022-12-16T11:56:31;24.83;;;20.67;;
9972;SDS011;5027;53.560;10.062;2022-12-16T11:59:37;26.73;;;22.20;;
9972;SDS011;5027;53.560;10.062;2022-12-16T12:02:31;25.53;;;21.20;;
9972;SDS011;5027;53.560;10.062;2022-12-16T12:05:27;26.97;;;22.13;;
9972;SDS011;5027;53.560;10.062;2022-12-16T12:08:34;25.93;;;22.87;;
9972;SDS011;5027;53.560;10.062;2022-12-16T12:11:33;25.73;;;22.13;;
9972;SDS011;5027;53.560;10.062;2022-12-16T12:14:27;26.30;;;22.63;;
9972;SDS011;5027;53.560;10.062;2022-12-16T12:27:07;27.30;;;23.47;;
9972;SDS011;5027;53.560;10.062;2022-12-16T12:30:04;28.80;;;23.77;;
9972;SDS011;5027;53.560;10.062;2022-12-16T12:33:07;29.67;;;23.17;;
9972;SDS011;5027;53.560;10.062;2022-12-16T12:39:16;30.97;;;23.00;;
9972;SDS011;5027;53.560;10.062;2022-12-16T12:48:34;27.30;;;21.83;;
9972;SDS011;5027;53.560;10.062;2022-12-16T12:55:03;26.80;;;21.73;;
9972;SDS011;5027;53.560;10.062;2022-12-16T12:58:07;29.43;;;23.43;;
9972;SDS011;5027;53.560;10.062;2022-12-16T13:00:54;29.17;;;24.93;;
9972;SDS011;5027;53.560;10.062;2022-12-16T13:03:42;25.70;;;22.50;;
9972;SDS011;5027;53.560;10.062;2022-12-16T13:06:34;27.10;;;23.17;;
9972;SDS011;5027;53.560;10.062;2022-12-16T13:16:00;25.27;;;21.93;;
9972;SDS011;5027;53.560;10.062;2022-12-16T13:18:46;25.73;;;23.03;;
9972;SDS011;5027;53.560;10.062;2022-12-16T13:27:11;27.27;;;23.63;;
9972;SDS011;5027;53.560;10.062;2022-12-16T13:33:01;31.03;;;25.03;;
9972;SDS011;5027;53.560;10.062;2022-12-16T13:35:59;28.00;;;23.60;;
9972;SDS011;5027;53.560;10.062;2022-12-16T13:38:48;27.83;;;22.87;;
9972;SDS011;5027;53.560;10.062;2022-12-16T13:53:32;30.17;;;22.70;;
9972;SDS011;5027;53.560;10.062;2022-12-16T13:56:25;31.33;;;24.73;;
9972;SDS011;5027;53.560;10.062;2022-12-16T13:59:25;35.10;;;28.93;;
9972;SDS011;5027;53.560;10.062;2022-12-16T14:05:07;27.47;;;23.77;;
9972;SDS011;5027;53.560;10.062;2022-12-16T14:08:13;29.00;;;23.97;;
9972;SDS011;5027;53.560;10.062;2022-12-16T14:11:06;31.23;;;24.70;;
9972;SDS011;5027;53.560;10.062;2022-12-16T14:16:58;27.70;;;24.40;;
9972;SDS011;5027;53.560;10.062;2022-12-16T14:22:50;26.07;;;23.23;;
9972;SDS011;5027;53.560;10.062;2022-12-16T14:26:00;29.03;;;24.63;;
9972;SDS011;5027;53.560;10.062;2022-12-16T14:28:49;27.50;;;23.97;;
9972;SDS011;5027;53.560;10.062;2022-12-16T14:31:41;27.27;;;23.40;;
9972;SDS011;5027;53.560;10.062;2022-12-16T14:34:30;30.13;;;24.90;;
9972;SDS011;5027;53.560;10.062;2022-12-16T14:37:18;31.80;;;26.30;;
9972;SDS011;5027;53.560;10.062;2022-12-16T14:40:18;29.63;;;24.20;;
9972;SDS011;5027;53.560;10.062;2022-12-16T14:46:29;33.53;;;27.00;;
9972;SDS011;5027;53.560;10.062;2022-12-16T14:49:22;33.27;;;25.93;;
9972;SDS011;5027;53.560;10.062;2022-12-16T14:52:24;31.87;;;26.13;;
9972;SDS011;5027;53.560;10.062;2022-12-16T14:55:28;33.37;;;26.37;;
9972;SDS011;5027;53.560;10.062;2022-12-16T14:58:20;30.97;;;25.87;;
9972;SDS011;5027;53.560;10.062;2022-12-16T15:04:08;30.97;;;26.20;;
9972;SDS011;5027;53.560;10.062;2022-12-16T15:07:01;31.17;;;25.63;;
9972;SDS011;5027;53.560;10.062;2022-12-16T15:09:56;28.80;;;25.40;;
9972;SDS011;5027;53.560;10.062;2022-12-16T15:12:43;33.17;;;26.50;;
9972;SDS011;5027;53.560;10.062;2022-12-16T15:15:32;31.73;;;26.00;;
9972;SDS011;5027;53.560;10.062;2022-12-16T15:21:34;32.00;;;26.30;;
9972;SDS011;5027;53.560;10.062;2022-12-16T15:24:23;34.00;;;27.23;;
9972;SDS011;5027;53.560;10.062;2022-12-16T15:33:23;33.03;;;26.33;;
9972;SDS011;5027;53.560;10.062;2022-12-16T15:36:29;30.87;;;26.80;;
9972;SDS011;5027;53.560;10.062;2022-12-16T15:39:34;48.07;;;35.17;;
9972;SDS011;5027;53.560;10.062;2022-12-16T15:42:28;34.40;;;28.00;;
9972;SDS011;5027;53.560;10.062;2022-12-16T15:45:25;34.37;;;27.73;;
9972;SDS011;5027;53.560;10.062;2022-12-16T15:48:25;33.23;;;26.80;;
9972;SDS011;5027;53.560;10.062;2022-12-16T15:51:29;34.80;;;26.37;;
9972;SDS011;5027;53.560;10.062;2022-12-16T15:54:27;32.03;;;27.60;;
9972;SDS011;5027;53.560;10.062;2022-12-16T15:57:24;34.30;;;26.53;;
9972;SDS011;5027;53.560;10.062;2022-12-16T16:00:23;35.80;;;29.07;;
9972;SDS011;5027;53.560;10.062;2022-12-16T16:03:28;33.10;;;26.73;;
9972;SDS011;5027;53.560;10.062;2022-12-16T16:06:19;35.63;;;28.63;;
9972;SDS011;5027;53.560;10.062;2022-12-16T16:09:25;32.70;;;27.23;;
9972;SDS011;5027;53.560;10.062;2022-12-16T16:12:16;35.50;;;28.53;;
9972;SDS011;5027;53.560;10.062;2022-12-16T16:15:07;33.10;;;28.00;;
9972;SDS011;5027;53.560;10.062;2022-12-16T16:18:04;30.60;;;27.10;;
9972;SDS011;5027;53.560;10.062;2022-12-16T16:20:53;39.00;;;28.80;;
9972;SDS011;5027;53.560;10.062;2022-12-16T16:23:38;34.63;;;28.63;;
9972;SDS011;5027;53.560;10.062;2022-12-16T16:26:25;39.10;;;29.90;;
9972;SDS011;5027;53.560;10.062;2022-12-16T16:29:14;37.33;;;29.73;;
9972;SDS011;5027;53.560;10.062;2022-12-16T16:32:00;35.60;;;28.77;;
9972;SDS011;5027;53.560;10.062;2022-12-16T16:34:46;36.23;;;28.43;;
9972;SDS011;5027;53.560;10.062;2022-12-16T16:37:34;34.63;;;28.30;;
9972;SDS011;5027;53.560;10.062;2022-12-16T16:40:36;34.20;;;29.37;;
9972;SDS011;5027;53.560;10.062;2022-12-16T16:43:23;32.83;;;27.87;;
9972;SDS011;5027;53.560;10.062;2022-12-16T16:46:31;34.20;;;28.03;;
9972;SDS011;5027;53.560;10.062;2022-12-16T16:49:43;35.97;;;29.60;;
9972;SDS011;5027;53.560;10.062;2022-12-16T16:52:30;34.60;;;28.57;;
9972;SDS011;5027;53.560;10.062;2022-12-16T16:55:23;38.20;;;28.97;;
9972;SDS011;5027;53.560;10.062;2022-12-16T16:58:14;34.47;;;29.60;;
9972;SDS011;5027;53.560;10.062;2022-12-16T17:01:04;36.83;;;29.53;;
9972;SDS011;5027;53.560;10.062;2022-12-16T17:03:58;33.23;;;28.60;;
9972;SDS011;5027;53.560;10.062;2022-12-16T17:06:45;34.60;;;28.60;;
9972;SDS011;5027;53.560;10.062;2022-12-16T17:09:35;35.23;;;29.27;;
9972;SDS011;5027;53.560;10.062;2022-12-16T17:12:27;35.27;;;30.37;;
9972;SDS011;5027;53.560;10.062;2022-12-16T17:15:28;34.87;;;29.23;;
9972;SDS011;5027;53.560;10.062;2022-12-16T17:18:21;35.43;;;28.30;;
9972;SDS011;5027;53.560;10.062;2022-12-16T17:21:13;35.80;;;29.97;;
9972;SDS011;5027;53.560;10.062;2022-12-16T17:23:58;37.23;;;30.10;;
9972;SDS011;5027;53.560;10.062;2022-12-16T17:26:49;37.90;;;31.10;;
9972;SDS011;5027;53.560;10.062;2022-12-16T17:29:37;38.03;;;29.00;;
9972;SDS011;5027;53.560;10.062;2022-12-16T17:32:25;37.33;;;30.90;;
9972;SDS011;5027;53.560;10.062;2022-12-16T17:35:11;40.27;;;30.23;;
9972;SDS011;5027;53.560;10.062;2022-12-16T17:37:56;39.50;;;31.17;;
9972;SDS011;5027;53.560;10.062;2022-12-16T17:40:42;39.00;;;31.60;;
9972;SDS011;5027;53.560;10.062;2022-12-16T17:43:27;38.80;;;30.70;;
9972;SDS011;5027;53.560;10.062;2022-12-16T17:46:12;42.07;;;31.53;;
9972;SDS011;5027;53.560;10.062;2022-12-16T17:48:58;40.73;;;32.10;;
9972;SDS011;5027;53.560;10.062;2022-12-16T17:51:43;40.33;;;31.33;;
9972;SDS011;5027;53.560;10.062;2022-12-16T17:54:29;40.83;;;32.57;;
9972;SDS011;5027;53.560;10.062;2022-12-16T17:57:14;36.93;;;31.37;;
9972;SDS011;5027;53.560;10.062;2022-12-16T18:00:00;36.77;;;30.13;;
9972;SDS011;5027;53.560;10.062;2022-12-16T18:02:45;38.50;;;29.97;;
9972;SDS011;5027;53.560;10.062;2022-12-16T18:05:30;37.33;;;32.20;;
9972;SDS011;5027;53.560;10.062;2022-12-16T18:08:19;37.83;;;31.23;;
9972;SDS011;5027;53.560;10.062;2022-12-16T18:11:04;40.10;;;31.83;;
9972;SDS011;5027;53.560;10.062;2022-12-16T18:13:49;36.30;;;30.43;;
9972;SDS011;5027;53.560;10.062;2022-12-16T18:16:35;38.43;;;30.67;;
9972;SDS011;5027;53.560;10.062;2022-12-16T18:19:20;40.67;;;31.03;;
9972;SDS011;5027;53.560;10.062;2022-12-16T18:22:05;38.63;;;31.63;;
9972;SDS011;5027;53.560;10.062;2022-12-16T18:24:51;38.87;;;30.87;;
9972;SDS011;5027;53.560;10.062;2022-12-16T18:27:36;38.77;;;31.17;;
9972;SDS011;5027;53.560;10.062;2022-12-16T18:30:22;36.77;;;32.33;;
9972;SDS011;5027;53.560;10.062;2022-12-16T18:33:07;40.33;;;31.93;;
9972;SDS011;5027;53.560;10.062;2022-12-16T18:35:52;36.63;;;30.90;;
9972;SDS011;5027;53.560;10.062;2022-12-16T18:38:37;41.10;;;32.53;;